Time;durP1;ratioP1;P1;durP2;ratioP2;P2;SDS_P1;SDS_P2;PMS_P1;PMS_P2;Temp;Humidity;BMP_temperature;BMP_pressure;BME280_temperature;BME280_humidity;BME280_pressure;Samples;Min_cycle;Max_cycle;Signal;HPM_P1;HPM_P2
2021/10/18 00:00:08;;;;;;;62.73;59.17;;;10.40;99.90;;;;;;4378871;32;20621;-65
2021/10/18 00:02:35;;;;;;;61.87;58.03;;;10.30;99.90;;;;;;4364373;32;20212;-64
2021/10/18 00:05:02;;;;;;;66.17;62.40;;;10.30;99.90;;;;;;4365384;32;20547;-64
2021/10/18 00:07:30;;;;;;;64.47;60.73;;;10.30;99.90;;;;;;4378396;32;20608;-64
2021/10/18 00:09:57;;;;;;;68.73;64.63;;;10.40;99.90;;;;;;4378732;32;20148;-66
2021/10/18 00:12:23;;;;;;;67.70;63.93;;;10.30;99.90;;;;;;4373111;32;20191;-67
2021/10/18 00:14:50;;;;;;;64.97;61.30;;;10.30;99.90;;;;;;4371963;32;20175;-64
2021/10/18 00:17:18;;;;;;;62.47;58.77;;;10.30;99.90;;;;;;4378994;32;20167;-67
2021/10/18 00:19:45;;;;;;;63.57;59.77;;;10.30;99.90;;;;;;4376990;32;20141;-66
2021/10/18 00:22:12;;;;;;;65.83;61.73;;;10.30;99.90;;;;;;4378493;32;20174;-64
2021/10/18 00:24:40;;;;;;;61.53;57.93;;;10.30;99.90;;;;;;4377054;32;20155;-64
2021/10/18 00:27:07;;;;;;;62.10;58.33;;;10.30;99.90;;;;;;4377360;32;20512;-66
2021/10/18 00:29:34;;;;;;;66.27;62.07;;;10.30;99.90;;;;;;4378829;32;20258;-64
2021/10/18 00:32:01;;;;;;;65.10;61.17;;;10.30;99.90;;;;;;4378147;32;20144;-65
2021/10/18 00:34:27;;;;;;;60.90;57.03;;;10.30;99.90;;;;;;4377537;32;20137;-65
2021/10/18 00:36:54;;;;;;;65.20;61.57;;;10.30;99.90;;;;;;4377898;32;20211;-64
2021/10/18 00:39:21;;;;;;;63.17;59.07;;;10.30;99.90;;;;;;4376811;32;20191;-66
2021/10/18 00:41:49;;;;;;;67.27;63.07;;;10.20;99.90;;;;;;4378071;32;20532;-65
2021/10/18 00:44:16;;;;;;;62.00;58.10;;;10.30;99.90;;;;;;4378755;32;20545;-64
2021/10/18 00:46:44;;;;;;;68.73;64.57;;;10.30;99.90;;;;;;4378462;32;20191;-63
2021/10/18 00:49:11;;;;;;;58.57;55.23;;;10.40;99.90;;;;;;4376122;32;20529;-64
2021/10/18 00:51:38;;;;;;;62.70;58.87;;;10.50;99.90;;;;;;4376861;32;20204;-64
2021/10/18 00:54:06;;;;;;;66.23;62.37;;;10.50;99.90;;;;;;4377105;32;20686;-64
2021/10/18 00:56:33;;;;;;;67.87;63.87;;;10.50;99.90;;;;;;4377036;32;20561;-64
2021/10/18 00:59:03;;;;;;;66.03;62.30;;;10.50;99.90;;;;;;4376195;32;20148;-63
2021/10/18 01:01:31;;;;;;;60.67;57.07;;;10.60;99.90;;;;;;4376676;32;20212;-64
2021/10/18 01:04:01;;;;;;;61.13;57.23;;;10.50;99.90;;;;;;4377330;32;20471;-64
2021/10/18 01:06:28;;;;;;;57.20;53.73;;;10.50;99.90;;;;;;4377456;32;20628;-64
2021/10/18 01:08:55;;;;;;;59.17;55.57;;;10.50;99.90;;;;;;4376599;32;20160;-64
2021/10/18 01:11:22;;;;;;;58.07;54.43;;;10.60;99.90;;;;;;4377945;32;20183;-64
2021/10/18 01:13:49;;;;;;;56.07;52.63;;;10.50;99.90;;;;;;4376057;32;20164;-64
2021/10/18 01:16:17;;;;;;;60.17;56.70;;;10.40;99.90;;;;;;4375828;32;20156;-64
2021/10/18 01:18:44;;;;;;;58.07;54.80;;;10.40;99.90;;;;;;4378155;32;20635;-64
2021/10/18 01:21:12;;;;;;;58.43;54.93;;;10.30;99.90;;;;;;4376638;32;20162;-64
2021/10/18 01:23:38;;;;;;;57.30;53.60;;;10.30;99.90;;;;;;4376330;32;20171;-64
2021/10/18 01:26:06;;;;;;;58.17;54.33;;;10.20;99.90;;;;;;4376786;32;20210;-64
2021/10/18 01:28:32;;;;;;;61.37;57.47;;;10.10;99.90;;;;;;4376638;32;20147;-64
2021/10/18 01:30:59;;;;;;;64.17;60.47;;;10.10;99.90;;;;;;4374851;32;20170;-64
2021/10/18 01:33:26;;;;;;;63.27;59.77;;;10.10;99.90;;;;;;4376252;32;20151;-67
2021/10/18 01:35:53;;;;;;;60.03;56.37;;;10.00;99.90;;;;;;4375887;32;20587;-64
2021/10/18 01:38:21;;;;;;;60.40;56.93;;;10.00;99.90;;;;;;4376153;32;20175;-64
2021/10/18 01:40:48;;;;;;;57.57;54.03;;;10.00;99.90;;;;;;4376980;32;20163;-67
2021/10/18 01:43:15;;;;;;;63.83;60.23;;;9.90;99.90;;;;;;4377859;32;20132;-64
2021/10/18 01:45:42;;;;;;;62.30;58.60;;;9.90;99.90;;;;;;4375594;32;20145;-64
2021/10/18 01:48:09;;;;;;;62.00;58.33;;;9.80;99.90;;;;;;4376131;32;20187;-65
2021/10/18 01:50:35;;;;;;;59.70;56.10;;;9.80;99.90;;;;;;4376972;32;20556;-64
2021/10/18 01:53:02;;;;;;;60.53;56.33;;;9.70;99.90;;;;;;4377647;32;20155;-64
2021/10/18 01:55:32;;;;;;;63.17;59.37;;;9.70;99.90;;;;;;4375619;32;20224;-64
2021/10/18 01:57:59;;;;;;;59.87;56.30;;;9.70;99.90;;;;;;4377299;32;20160;-67
2021/10/18 02:00:26;;;;;;;63.80;59.63;;;9.70;99.90;;;;;;4376385;32;20156;-64
2021/10/18 02:02:53;;;;;;;61.17;57.37;;;9.60;99.90;;;;;;4377613;32;20163;-64
2021/10/18 02:05:20;;;;;;;60.60;56.67;;;9.60;99.90;;;;;;4376936;32;20156;-64
2021/10/18 02:07:47;;;;;;;60.83;57.17;;;9.50;99.90;;;;;;4375405;32;20152;-65
2021/10/18 02:10:14;;;;;;;59.57;56.03;;;9.50;99.90;;;;;;4374945;32;20144;-64
2021/10/18 02:12:44;;;;;;;62.40;58.60;;;9.40;99.90;;;;;;4372940;32;20250;-64
2021/10/18 02:15:12;;;;;;;60.40;56.90;;;9.40;99.90;;;;;;4375625;32;20147;-66
2021/10/18 02:17:40;;;;;;;55.80;51.70;;;9.40;99.90;;;;;;4374717;32;20178;-64
2021/10/18 02:20:09;;;;;;;57.23;53.43;;;9.40;99.90;;;;;;4376998;32;20144;-64
2021/10/18 02:22:37;;;;;;;55.70;52.23;;;9.30;99.90;;;;;;4375902;32;20216;-66
2021/10/18 02:25:05;;;;;;;59.23;55.47;;;9.20;99.90;;;;;;4375544;32;20159;-65
2021/10/18 02:27:31;;;;;;;61.47;57.43;;;9.10;99.90;;;;;;4375359;32;20155;-64
2021/10/18 02:30:02;;;;;;;62.47;58.37;;;9.10;99.90;;;;;;4375748;32;20167;-64
2021/10/18 02:32:29;;;;;;;58.67;54.30;;;9.10;99.90;;;;;;4376444;32;20129;-64
2021/10/18 02:34:56;;;;;;;62.80;58.77;;;9.00;99.90;;;;;;4376234;32;20176;-65
2021/10/18 02:37:23;;;;;;;59.70;56.00;;;9.10;99.90;;;;;;4376828;32;20167;-64
2021/10/18 02:39:50;;;;;;;58.33;54.57;;;9.00;99.90;;;;;;4374972;32;20168;-64
2021/10/18 02:42:17;;;;;;;57.37;53.77;;;9.00;99.90;;;;;;4376886;32;20520;-66
2021/10/18 02:44:44;;;;;;;63.57;59.63;;;8.90;99.90;;;;;;4376178;32;20227;-64
2021/10/18 02:47:12;;;;;;;60.70;56.57;;;8.90;99.90;;;;;;4375235;32;20573;-66
2021/10/18 02:49:39;;;;;;;55.07;51.50;;;8.90;99.90;;;;;;4374626;32;20198;-63
2021/10/18 02:52:06;;;;;;;56.20;52.60;;;8.90;99.90;;;;;;4375746;32;20514;-64
2021/10/18 02:54:35;;;;;;;57.80;53.97;;;8.90;99.90;;;;;;4376054;32;20224;-65
2021/10/18 02:57:02;;;;;;;63.20;58.93;;;8.90;99.90;;;;;;4375170;32;20164;-66
2021/10/18 02:59:29;;;;;;;59.60;55.20;;;8.80;99.90;;;;;;4374713;32;20558;-67
2021/10/18 03:01:56;;;;;;;58.87;54.87;;;8.80;99.90;;;;;;4376970;32;20152;-64
2021/10/18 03:04:24;;;;;;;59.17;55.43;;;8.80;99.90;;;;;;4375302;32;20148;-63
2021/10/18 03:06:51;;;;;;;61.87;57.90;;;8.80;99.90;;;;;;4375458;32;20140;-63
2021/10/18 03:09:18;;;;;;;58.63;54.23;;;8.80;99.90;;;;;;4375977;32;20175;-65
2021/10/18 03:11:45;;;;;;;58.17;54.17;;;8.80;99.90;;;;;;4375276;32;20196;-66
2021/10/18 03:14:11;;;;;;;55.77;52.07;;;8.80;99.90;;;;;;4367833;32;20148;-66
2021/10/18 03:16:38;;;;;;;54.37;50.37;;;8.80;99.90;;;;;;4361482;33;20554;-64
2021/10/18 03:19:05;;;;;;;56.50;52.60;;;8.80;99.90;;;;;;4371447;32;20168;-66
2021/10/18 03:21:33;;;;;;;60.70;56.63;;;8.70;99.90;;;;;;4378784;32;20507;-64
2021/10/18 03:24:00;;;;;;;57.60;53.60;;;8.70;99.90;;;;;;4378702;32;20160;-65
2021/10/18 03:26:27;;;;;;;57.37;53.57;;;8.70;99.90;;;;;;4378891;32;20178;-63
2021/10/18 03:28:54;;;;;;;55.93;51.67;;;8.70;99.90;;;;;;4371963;32;20165;-64
2021/10/18 03:31:20;;;;;;;55.93;51.80;;;8.60;99.90;;;;;;4379062;32;20167;-64
2021/10/18 03:33:49;;;;;;;55.57;51.93;;;8.60;99.90;;;;;;4377759;32;20159;-66
2021/10/18 03:36:16;;;;;;;57.37;53.47;;;8.60;99.90;;;;;;4378543;32;20165;-66
2021/10/18 03:38:44;;;;;;;57.93;54.00;;;8.60;99.90;;;;;;4379079;32;20232;-66
2021/10/18 03:41:11;;;;;;;59.60;55.73;;;8.60;99.90;;;;;;4377909;32;20158;-64
2021/10/18 03:43:38;;;;;;;60.37;56.03;;;8.50;99.90;;;;;;4377795;32;20590;-64
2021/10/18 03:46:05;;;;;;;59.43;55.10;;;8.50;99.90;;;;;;4379292;32;20158;-64
2021/10/18 03:48:33;;;;;;;58.20;54.27;;;8.60;99.90;;;;;;4377391;32;20169;-63
2021/10/18 03:51:00;;;;;;;57.87;53.33;;;8.50;99.90;;;;;;4378641;32;20195;-66
2021/10/18 03:53:26;;;;;;;58.30;53.73;;;8.50;99.90;;;;;;4377568;32;20188;-64
2021/10/18 03:55:55;;;;;;;57.60;53.47;;;8.50;99.90;;;;;;4379130;32;20533;-64
2021/10/18 03:58:22;;;;;;;53.20;49.23;;;8.50;99.90;;;;;;4372585;32;20181;-64
2021/10/18 04:00:48;;;;;;;58.70;54.43;;;8.40;99.90;;;;;;4363173;32;20183;-64
2021/10/18 04:03:15;;;;;;;61.20;57.13;;;8.40;99.90;;;;;;4365423;32;20163;-64
2021/10/18 04:05:42;;;;;;;58.77;54.53;;;8.40;99.90;;;;;;4377663;32;20224;-65
2021/10/18 04:08:10;;;;;;;55.97;51.70;;;8.40;99.90;;;;;;4377822;32;20176;-64
2021/10/18 04:10:37;;;;;;;54.97;51.17;;;8.40;99.90;;;;;;4377564;32;20262;-66
2021/10/18 04:13:05;;;;;;;54.80;51.10;;;8.30;99.90;;;;;;4376935;32;20183;-64
2021/10/18 04:15:32;;;;;;;54.40;50.43;;;8.40;99.90;;;;;;4377242;32;20167;-64
2021/10/18 04:17:59;;;;;;;57.20;53.10;;;8.30;99.90;;;;;;4376709;32;20160;-65
2021/10/18 04:20:26;;;;;;;59.40;55.20;;;8.20;99.90;;;;;;4377359;32;20630;-64
2021/10/18 04:22:52;;;;;;;56.97;52.70;;;8.30;99.90;;;;;;4378492;32;20214;-64
2021/10/18 04:25:19;;;;;;;58.63;54.23;;;8.30;99.90;;;;;;4378093;32;20191;-64
2021/10/18 04:27:46;;;;;;;56.23;52.10;;;8.20;99.90;;;;;;4376487;32;20201;-64
2021/10/18 04:30:14;;;;;;;55.97;51.80;;;8.20;99.90;;;;;;4378837;32;20160;-64
2021/10/18 04:32:41;;;;;;;54.70;50.70;;;8.20;99.90;;;;;;4378300;32;20140;-64
2021/10/18 04:35:08;;;;;;;53.47;49.33;;;8.20;99.90;;;;;;4377129;32;20175;-64
2021/10/18 04:37:35;;;;;;;51.93;48.00;;;8.20;99.90;;;;;;4375906;32;20200;-64
2021/10/18 04:40:02;;;;;;;54.70;50.73;;;8.20;99.90;;;;;;4377086;32;20164;-64
2021/10/18 04:42:29;;;;;;;51.43;47.60;;;8.20;99.90;;;;;;4375192;32;20184;-64
2021/10/18 04:44:56;;;;;;;51.03;47.07;;;8.20;99.90;;;;;;4369658;32;20163;-64
2021/10/18 04:47:24;;;;;;;56.10;51.53;;;8.10;99.90;;;;;;4370893;32;20243;-64
2021/10/18 04:49:51;;;;;;;54.97;50.87;;;8.10;99.90;;;;;;4375329;32;20138;-64
2021/10/18 04:52:17;;;;;;;56.60;52.43;;;8.20;99.90;;;;;;4364467;32;20231;-63
2021/10/18 04:54:44;;;;;;;53.13;49.13;;;8.10;99.90;;;;;;4373061;32;20179;-65
2021/10/18 04:57:11;;;;;;;60.73;56.47;;;8.10;99.90;;;;;;4374865;32;20182;-64
2021/10/18 04:59:38;;;;;;;57.40;52.80;;;8.00;99.90;;;;;;4366141;32;20452;-64
2021/10/18 05:02:05;;;;;;;57.43;53.40;;;8.00;99.90;;;;;;4366848;32;20168;-64
2021/10/18 05:04:33;;;;;;;59.23;55.07;;;8.00;99.90;;;;;;4368057;32;20168;-63
2021/10/18 05:07:00;;;;;;;58.50;54.30;;;8.00;99.90;;;;;;4361673;32;20159;-63
2021/10/18 05:09:27;;;;;;;54.27;50.27;;;8.00;99.90;;;;;;4374559;32;20181;-64
2021/10/18 05:11:53;;;;;;;53.80;49.97;;;8.00;99.90;;;;;;4377285;32;20452;-63
2021/10/18 05:14:20;;;;;;;52.23;48.10;;;8.00;99.90;;;;;;4375494;32;20149;-64
2021/10/18 05:16:47;;;;;;;53.67;49.33;;;8.10;99.90;;;;;;4376581;32;20148;-65
2021/10/18 05:19:14;;;;;;;56.87;52.63;;;8.00;99.90;;;;;;4373275;32;20504;-65
2021/10/18 05:21:42;;;;;;;53.50;49.53;;;8.00;99.90;;;;;;4369116;32;20137;-65
2021/10/18 05:24:09;;;;;;;55.93;51.60;;;8.00;99.90;;;;;;4375364;32;20142;-63
2021/10/18 05:26:36;;;;;;;56.80;52.30;;;8.00;99.90;;;;;;4377742;32;20191;-64
2021/10/18 05:29:03;;;;;;;54.70;50.17;;;8.00;99.90;;;;;;4364544;32;20585;-63
2021/10/18 05:31:30;;;;;;;53.43;49.00;;;8.00;99.90;;;;;;4356122;32;20144;-65
2021/10/18 05:33:57;;;;;;;55.03;50.53;;;7.90;99.90;;;;;;4356332;32;20528;-66
2021/10/18 05:36:23;;;;;;;53.80;49.63;;;7.90;99.90;;;;;;4362527;32;20182;-63
2021/10/18 05:38:52;;;;;;;58.93;53.97;;;7.90;99.90;;;;;;4359799;33;20134;-64
2021/10/18 05:41:19;;;;;;;53.97;49.77;;;7.90;99.90;;;;;;4359474;32;20236;-63
2021/10/18 05:43:45;;;;;;;59.27;54.10;;;7.90;99.90;;;;;;4352771;33;20159;-64
2021/10/18 05:46:12;;;;;;;53.97;49.67;;;7.90;99.90;;;;;;4356125;32;20168;-64
2021/10/18 05:48:39;;;;;;;56.10;51.60;;;7.90;99.90;;;;;;4360333;33;20179;-63
2021/10/18 05:51:06;;;;;;;57.47;53.03;;;7.80;99.90;;;;;;4360309;33;20164;-64
2021/10/18 05:53:33;;;;;;;51.80;47.67;;;7.80;99.90;;;;;;4359859;33;20157;-63
2021/10/18 05:56:01;;;;;;;54.83;50.13;;;7.80;99.90;;;;;;4353102;33;20457;-63
2021/10/18 05:58:28;;;;;;;54.57;49.90;;;7.80;99.90;;;;;;4354982;32;20564;-64
2021/10/18 06:00:55;;;;;;;49.60;45.47;;;7.90;99.90;;;;;;4355685;32;20142;-64
2021/10/18 06:03:22;;;;;;;54.73;49.90;;;7.90;99.90;;;;;;4355962;32;20166;-64
2021/10/18 06:05:51;;;;;;;56.27;51.43;;;7.90;99.90;;;;;;4359680;32;20184;-66
2021/10/18 06:08:18;;;;;;;52.13;47.37;;;7.90;99.90;;;;;;4358283;32;20150;-63
2021/10/18 06:10:45;;;;;;;47.50;43.40;;;7.90;99.90;;;;;;4357356;32;20169;-66
2021/10/18 06:13:14;;;;;;;50.67;46.73;;;7.90;99.90;;;;;;4350571;32;20478;-63
2021/10/18 06:15:41;;;;;;;49.97;45.67;;;7.90;99.90;;;;;;4357895;32;20158;-64
2021/10/18 06:18:09;;;;;;;50.20;45.77;;;7.90;99.90;;;;;;4357063;33;20215;-64
2021/10/18 06:20:36;;;;;;;52.93;48.60;;;7.90;99.90;;;;;;4360818;32;20164;-63
2021/10/18 06:23:03;;;;;;;49.03;44.70;;;8.00;99.90;;;;;;4359840;32;20144;-63
2021/10/18 06:25:30;;;;;;;52.30;47.47;;;8.00;99.90;;;;;;4366026;32;20150;-63
2021/10/18 06:27:57;;;;;;;52.17;47.63;;;8.10;99.90;;;;;;4372191;32;20240;-62
2021/10/18 06:30:27;;;;;;;49.60;45.27;;;8.10;99.90;;;;;;4364235;32;20605;-65
2021/10/18 06:32:54;;;;;;;47.93;43.57;;;8.20;99.90;;;;;;4366494;32;20213;-65
2021/10/18 06:35:21;;;;;;;46.57;42.57;;;8.20;99.90;;;;;;4368336;32;20181;-65
2021/10/18 06:37:48;;;;;;;48.77;44.30;;;8.30;99.90;;;;;;4371090;32;20186;-63
2021/10/18 06:40:15;;;;;;;48.87;44.73;;;8.30;99.90;;;;;;4371025;32;20234;-62
2021/10/18 06:42:42;;;;;;;47.70;43.43;;;8.40;99.90;;;;;;4374966;32;20155;-63
2021/10/18 06:45:10;;;;;;;47.87;43.43;;;8.40;99.90;;;;;;4371341;32;20165;-65
2021/10/18 06:47:39;;;;;;;46.17;41.50;;;8.50;99.90;;;;;;4368993;32;20577;-65
2021/10/18 06:50:08;;;;;;;46.10;41.63;;;8.50;99.90;;;;;;4369523;32;20165;-64
2021/10/18 06:52:37;;;;;;;51.10;46.73;;;8.60;99.90;;;;;;4367383;32;20180;-65
2021/10/18 06:55:05;;;;;;;43.90;40.00;;;8.60;99.90;;;;;;4374105;32;20146;-64
2021/10/18 06:57:33;;;;;;;44.97;41.03;;;8.70;99.90;;;;;;4373045;32;20477;-63
2021/10/18 07:00:00;;;;;;;50.10;45.67;;;8.60;99.90;;;;;;4372750;32;20206;-64
2021/10/18 07:20:00;;;;;;;205.07;85.20;;;8.80;99.90;;;;;;4120747;32;9250202;-65
2021/10/18 07:22:30;;;;;;;185.07;80.37;;;9.50;99.90;;;;;;4387486;32;20259;-66
2021/10/18 07:25:01;;;;;;;55.10;49.80;;;9.60;99.90;;;;;;4387550;32;20152;-65
2021/10/18 07:27:31;;;;;;;58.10;53.47;;;9.80;99.90;;;;;;4387357;32;20164;-65
2021/10/18 07:29:58;;;;;;;52.57;47.87;;;9.80;99.90;;;;;;4387106;32;20222;-64
2021/10/18 07:32:27;;;;;;;51.00;46.60;;;9.90;99.90;;;;;;4359242;33;20194;-65
2021/10/18 07:34:56;;;;;;;55.33;50.47;;;10.00;99.90;;;;;;4369336;32;20607;-67
2021/10/18 07:37:27;;;;;;;51.70;47.40;;;10.10;99.90;;;;;;4387993;32;20174;-66
2021/10/18 07:40:03;;;;;;;57.07;52.57;;;10.20;99.90;;;;;;4383028;32;20198;-66
2021/10/18 07:42:33;;;;;;;56.57;52.03;;;10.20;99.90;;;;;;4368214;32;20171;-66
2021/10/18 07:45:09;;;;;;;53.40;48.90;;;10.40;99.90;;;;;;4371648;32;20593;-64
2021/10/18 07:47:55;;;;;;;309.57;86.70;;;10.30;99.90;;;;;;4358269;32;20195;-66
2021/10/18 07:50:32;;;;;;;56.50;51.13;;;10.40;99.90;;;;;;4359351;32;20196;-65
2021/10/18 07:53:03;;;;;;;58.10;53.37;;;10.40;99.90;;;;;;4373583;32;20514;-65
2021/10/18 07:55:41;;;;;;;96.17;63.87;;;10.40;99.90;;;;;;4370587;32;20164;-67
2021/10/18 07:58:09;;;;;;;60.97;54.30;;;10.50;99.90;;;;;;4360404;32;20156;-64
2021/10/18 08:00:45;;;;;;;57.93;53.20;;;10.60;99.90;;;;;;4366531;32;20206;-66
2021/10/18 08:03:17;;;;;;;54.20;48.47;;;10.70;99.90;;;;;;4364703;32;20161;-65
2021/10/18 08:05:49;;;;;;;60.90;54.70;;;10.80;99.90;;;;;;4373989;32;20191;-64
2021/10/18 08:08:28;;;;;;;55.93;51.40;;;10.80;99.90;;;;;;4369004;32;20469;-65
2021/10/18 08:10:55;;;;;;;59.43;54.30;;;10.90;99.90;;;;;;4368770;32;20654;-64
2021/10/18 08:13:22;;;;;;;56.87;51.87;;;11.10;99.90;;;;;;4367141;32;20187;-65
2021/10/18 08:15:49;;;;;;;56.17;51.90;;;11.20;99.90;;;;;;4357486;33;20216;-64
2021/10/18 08:18:16;;;;;;;61.87;56.77;;;11.30;99.90;;;;;;4363924;32;20183;-64
2021/10/18 08:20:46;;;;;;;57.70;53.10;;;11.40;99.90;;;;;;4353900;32;20192;-64
2021/10/18 08:23:13;;;;;;;919.10;229.63;;;11.50;99.90;;;;;;4352745;32;20257;-64
2021/10/18 08:25:42;;;;;;;92.43;64.70;;;11.70;99.90;;;;;;4348490;33;20189;-66
2021/10/18 08:28:09;;;;;;;54.60;50.03;;;11.70;99.90;;;;;;4351580;32;20182;-65
2021/10/18 08:30:37;;;;;;;61.77;56.17;;;11.70;99.90;;;;;;4360815;32;20528;-65
2021/10/18 08:33:04;;;;;;;59.43;54.63;;;11.70;99.90;;;;;;4359632;32;20160;-64
2021/10/18 08:35:32;;;;;;;59.40;54.30;;;11.80;99.90;;;;;;4360993;32;20161;-66
2021/10/18 08:38:19;;;;;;;54.07;49.47;;;11.70;99.90;;;;;;4358762;32;20164;-64
2021/10/18 08:41:00;;;;;;;57.60;52.97;;;11.80;99.90;;;;;;4361787;32;20228;-64
2021/10/18 08:46:10;;;;;;;61.33;55.93;;;12.10;99.90;;;;;;4356810;32;20216;-65
2021/10/18 08:48:37;;;;;;;62.63;57.70;;;12.30;99.90;;;;;;4358997;32;20221;-64
2021/10/18 08:51:03;;;;;;;60.33;55.73;;;12.40;99.90;;;;;;4357125;32;20203;-66
2021/10/18 08:53:33;;;;;;;64.87;60.10;;;12.40;99.90;;;;;;4359988;32;20493;-64
2021/10/18 08:56:02;;;;;;;60.80;56.13;;;12.50;99.90;;;;;;4350297;32;20644;-67
2021/10/18 08:58:28;;;;;;;60.67;56.03;;;12.60;99.90;;;;;;4351576;32;20164;-63
2021/10/18 09:00:55;;;;;;;64.53;59.63;;;12.50;99.90;;;;;;4350619;32;20574;-63
2021/10/18 09:03:25;;;;;;;60.63;55.63;;;12.60;99.90;;;;;;4358684;32;20193;-64
2021/10/18 09:06:08;;;;;;;57.90;53.00;;;12.50;99.90;;;;;;4361977;32;20173;-65
2021/10/18 09:08:36;;;;;;;62.23;57.07;;;12.60;99.90;;;;;;4356397;32;20187;-64
2021/10/18 09:11:21;;;;;;;63.17;58.40;;;12.60;99.90;;;;;;4351963;32;20227;-64
2021/10/18 09:14:02;;;;;;;57.90;53.53;;;12.70;99.90;;;;;;4349035;32;20165;-64
2021/10/18 09:16:42;;;;;;;60.97;56.13;;;12.90;99.90;;;;;;4353517;32;20169;-65
2021/10/18 09:19:11;;;;;;;58.77;54.13;;;13.00;99.90;;;;;;4348687;32;20188;-64
2021/10/18 09:21:41;;;;;;;52.77;48.57;;;13.10;99.90;;;;;;4350071;32;20168;-64
2021/10/18 09:24:12;;;;;;;54.67;50.10;;;13.30;99.90;;;;;;4360374;32;20157;-64
2021/10/18 09:26:54;;;;;;;54.57;50.07;;;13.20;99.90;;;;;;4348126;32;20161;-67
2021/10/18 09:29:23;;;;;;;57.13;52.43;;;13.00;99.90;;;;;;4348689;32;20168;-64
2021/10/18 09:31:59;;;;;;;54.17;49.80;;;12.90;99.90;;;;;;4347161;32;20165;-66
2021/10/18 09:34:32;;;;;;;54.67;50.23;;;12.90;99.90;;;;;;4356248;32;20500;-64
2021/10/18 09:37:06;;;;;;;63.77;58.80;;;12.90;99.90;;;;;;4356064;32;20547;-65
2021/10/18 09:39:41;;;;;;;59.33;54.63;;;12.90;99.90;;;;;;4360504;32;20222;-66
2021/10/18 09:42:13;;;;;;;62.10;56.93;;;13.10;99.90;;;;;;4360519;32;20172;-64
2021/10/18 10:51:39;;;;;;;47.27;43.47;;;15.00;99.90;;;;;;4361019;32;20218;-64
2021/10/18 10:54:07;;;;;;;46.43;42.40;;;14.90;99.90;;;;;;4369437;32;20156;-64
2021/10/18 10:56:43;;;;;;;55.27;50.70;;;14.80;99.90;;;;;;4353659;32;20231;-65
2021/10/18 10:59:21;;;;;;;48.47;44.60;;;14.90;99.90;;;;;;4351972;32;20661;-64
2021/10/18 11:01:57;;;;;;;50.10;46.37;;;14.90;99.90;;;;;;4353374;32;20593;-64
2021/10/18 11:04:54;;;;;;;51.80;48.00;;;14.90;99.90;;;;;;4352384;32;20194;-65
2021/10/18 11:07:58;;;;;;;47.23;43.70;;;14.80;99.90;;;;;;4347210;33;20175;-65
2021/10/18 11:10:25;;;;;;;51.93;47.97;;;14.90;99.90;;;;;;4351556;32;20269;-66
2021/10/18 11:12:53;;;;;;;51.17;46.93;;;15.00;99.90;;;;;;4347890;32;20614;-63
2021/10/18 11:15:25;;;;;;;49.30;45.70;;;15.20;99.90;;;;;;4344950;33;20626;-63
2021/10/18 11:17:53;;;;;;;51.27;47.60;;;15.10;99.90;;;;;;4355190;32;20159;-66
2021/10/18 11:20:23;;;;;;;52.10;48.17;;;15.20;99.90;;;;;;4346733;33;20160;-62
2021/10/18 11:22:55;;;;;;;48.67;44.67;;;15.20;99.90;;;;;;4349301;32;20227;-62
2021/10/18 11:25:25;;;;;;;51.57;47.97;;;15.30;99.90;;;;;;4347851;32;20226;-64
2021/10/18 11:28:03;;;;;;;52.97;48.20;;;15.30;99.90;;;;;;4346160;32;20602;-64
2021/10/18 11:30:33;;;;;;;50.27;46.47;;;15.30;99.90;;;;;;4346800;32;20175;-64
2021/10/18 11:33:14;;;;;;;49.20;45.43;;;15.20;99.90;;;;;;4351304;33;20155;-64
2021/10/18 11:35:45;;;;;;;49.27;45.40;;;15.30;99.90;;;;;;4353682;32;20512;-64
2021/10/18 11:38:15;;;;;;;53.93;49.97;;;15.40;99.90;;;;;;4357520;32;20187;-64
2021/10/18 11:40:50;;;;;;;50.00;46.30;;;15.50;99.90;;;;;;4350044;32;20551;-65
2021/10/18 11:43:22;;;;;;;52.73;48.87;;;15.40;99.90;;;;;;4352279;32;20156;-64
2021/10/18 11:45:55;;;;;;;47.80;44.33;;;15.40;99.90;;;;;;4356753;33;20161;-65
2021/10/18 11:48:26;;;;;;;51.50;47.80;;;15.40;99.90;;;;;;4347955;33;20157;-64
2021/10/18 11:50:57;;;;;;;49.33;45.40;;;15.30;99.90;;;;;;4354605;32;20229;-64
2021/10/18 11:53:28;;;;;;;46.90;43.47;;;15.30;99.90;;;;;;4357741;32;20270;-65
2021/10/18 11:56:00;;;;;;;49.43;45.83;;;15.30;99.90;;;;;;4362640;32;20532;-65
2021/10/18 11:58:33;;;;;;;51.53;47.63;;;15.30;99.90;;;;;;4348344;32;20205;-64
2021/10/18 12:01:02;;;;;;;48.63;44.83;;;15.20;99.90;;;;;;4357137;32;20192;-65
2021/10/18 12:03:30;;;;;;;50.60;46.67;;;15.30;99.90;;;;;;4358070;32;20172;-64
2021/10/18 12:06:04;;;;;;;51.83;48.00;;;15.20;99.90;;;;;;4361161;32;20235;-65
2021/10/18 12:08:43;;;;;;;48.80;45.10;;;15.10;99.90;;;;;;4348148;32;20165;-66
2021/10/18 12:11:52;;;;;;;46.00;42.60;;;15.10;99.90;;;;;;4353283;32;20185;-65
2021/10/18 12:14:32;;;;;;;46.90;43.43;;;15.00;99.90;;;;;;4361267;32;20176;-64
2021/10/18 12:17:10;;;;;;;49.57;46.27;;;15.00;99.90;;;;;;4351550;32;20494;-66
2021/10/18 12:20:06;;;;;;;47.37;44.10;;;15.10;99.90;;;;;;4353102;32;20485;-66
2021/10/18 12:22:59;;;;;;;46.83;43.43;;;15.30;99.90;;;;;;4350045;32;20164;-66
2021/10/18 12:25:50;;;;;;;45.43;42.33;;;15.40;99.90;;;;;;4356017;32;20643;-65
2021/10/18 12:28:51;;;;;;;49.80;46.00;;;15.50;99.90;;;;;;4360892;32;20176;-65
2021/10/18 12:32:18;;;;;;;45.87;42.27;;;15.60;99.90;;;;;;4357794;32;20153;-64
2021/10/18 12:35:16;;;;;;;47.57;44.17;;;15.40;99.90;;;;;;4286392;33;20269;-65
2021/10/18 12:38:04;;;;;;;50.27;46.47;;;15.50;99.90;;;;;;4287445;33;20524;-65
2021/10/18 12:40:53;;;;;;;45.63;42.33;;;15.50;99.90;;;;;;4286367;33;20596;-67
2021/10/18 12:43:47;;;;;;;45.57;42.20;;;15.60;99.90;;;;;;4287339;33;20163;-65
2021/10/18 12:46:41;;;;;;;;;;;;;;;;;;;;;
2021/10/18 12:50:00;;;;;;;49.90;46.40;;;15.60;99.90;;;;;;4233289;33;20178;-65
2021/10/18 12:52:39;;;;;;;47.73;44.40;;;15.80;99.90;;;;;;4246150;33;20568;-65
2021/10/18 12:55:20;;;;;;;49.20;45.77;;;15.80;99.90;;;;;;4246824;33;20167;-65
2021/10/18 12:57:54;;;;;;;51.03;47.30;;;15.70;99.90;;;;;;4250224;33;20262;-65
2021/10/18 13:00:28;;;;;;;51.10;47.53;;;15.70;99.90;;;;;;4286875;33;20161;-66
2021/10/18 13:02:57;;;;;;;45.97;42.47;;;15.50;99.90;;;;;;4284137;33;20193;-66
2021/10/18 13:05:32;;;;;;;50.27;46.37;;;15.70;99.90;;;;;;4275468;33;20192;-66
2021/10/18 13:08:01;;;;;;;45.47;42.13;;;15.70;99.90;;;;;;4282461;33;20180;-66
2021/10/18 13:10:32;;;;;;;48.43;44.70;;;15.60;99.90;;;;;;4271923;33;20186;-64
2021/10/18 13:13:03;;;;;;;45.13;42.23;;;15.60;99.90;;;;;;4275522;33;20200;-64
2021/10/18 13:15:31;;;;;;;49.53;46.23;;;15.60;99.90;;;;;;4285693;33;20170;-65
2021/10/18 13:18:12;;;;;;;50.07;46.30;;;15.60;99.90;;;;;;4284239;33;20185;-65
2021/10/18 13:20:49;;;;;;;47.37;44.20;;;15.70;99.90;;;;;;4297281;33;20229;-64
2021/10/18 13:23:27;;;;;;;51.43;47.77;;;15.70;99.90;;;;;;4317062;33;20259;-64
2021/10/18 13:25:58;;;;;;;49.57;46.17;;;15.60;99.90;;;;;;4331574;33;20161;-65
2021/10/18 13:28:29;;;;;;;46.07;42.77;;;15.60;99.90;;;;;;4329321;33;20239;-65
2021/10/18 13:31:12;;;;;;;48.97;45.70;;;15.70;99.90;;;;;;4333069;33;20477;-65
2021/10/18 13:33:40;;;;;;;45.13;41.97;;;15.60;99.90;;;;;;4319703;33;20639;-65
2021/10/18 13:36:10;;;;;;;52.33;48.77;;;15.60;99.90;;;;;;4331232;33;20199;-66
2021/10/18 13:38:41;;;;;;;49.37;46.00;;;15.50;99.90;;;;;;4319680;33;20162;-66
2021/10/18 13:41:17;;;;;;;48.87;45.70;;;15.40;99.90;;;;;;4318743;33;20172;-65
2021/10/18 13:43:54;;;;;;;48.30;44.77;;;15.20;99.90;;;;;;4322430;33;20180;-65
2021/10/18 13:46:31;;;;;;;52.67;49.20;;;15.20;99.90;;;;;;4317119;33;20149;-65
2021/10/18 13:49:00;;;;;;;48.23;44.90;;;15.10;99.90;;;;;;4324018;33;20157;-65
2021/10/18 13:51:33;;;;;;;47.57;44.17;;;15.10;99.90;;;;;;4332345;33;20277;-65
2021/10/18 13:54:06;;;;;;;50.47;47.03;;;15.10;99.90;;;;;;4332588;33;20184;-66
2021/10/18 13:56:41;;;;;;;49.13;45.73;;;15.00;99.90;;;;;;4322642;33;20225;-65
2021/10/18 13:59:18;;;;;;;46.23;43.00;;;14.90;99.90;;;;;;4323835;33;20656;-66
2021/10/18 14:01:57;;;;;;;53.53;49.63;;;14.70;99.90;;;;;;4323324;33;20168;-65
2021/10/18 14:04:29;;;;;;;46.47;43.27;;;14.70;99.90;;;;;;4320747;33;20531;-66
2021/10/18 14:07:07;;;;;;;49.23;45.73;;;14.70;99.90;;;;;;4318913;33;20188;-66
2021/10/18 14:09:37;;;;;;;48.63;45.27;;;14.60;99.90;;;;;;4332534;33;20841;-66
2021/10/18 14:12:04;;;;;;;45.40;42.20;;;14.70;99.90;;;;;;4331532;33;20646;-66
2021/10/18 14:14:54;;;;;;;45.50;42.53;;;14.70;99.90;;;;;;4321698;33;20181;-66
2021/10/18 14:17:32;;;;;;;49.00;45.67;;;14.80;99.90;;;;;;4325587;33;20150;-66